Time;durP1;ratioP1;P1;durP2;ratioP2;P2;SDS_P1;SDS_P2;PMS_P1;PMS_P2;Temp;Humidity;BMP_temperature;BMP_pressure;BME280_temperature;BME280_humidity;BME280_pressure;Samples;Min_cycle;Max_cycle;Signal;HPM_P1;HPM_P2
2022/02/13 00:00:10;;;;;;;425.73;404.88;;;;;;;2.17;61.69;101893.09;693845;28;22331;-69
2022/02/13 00:00:32;;;;;;;406.50;386.67;;;;;;;2.16;61.67;101891.38;690840;28;115129;-69
2022/02/13 00:00:55;;;;;;;458.90;436.25;;;;;;;2.17;61.64;101893.94;692426;28;21519;-69
2022/02/13 00:01:18;;;;;;;627.50;594.13;;;;;;;2.16;61.42;101889.59;680153;28;69409;-69
2022/02/13 00:01:39;;;;;;;698.08;660.15;;;;;;;2.15;61.61;101893.19;691077;28;70738;-70
2022/02/13 00:02:00;;;;;;;706.20;667.28;;;;;;;2.15;61.71;101892.34;693543;28;22391;-69
2022/02/13 00:02:22;;;;;;;640.10;605.65;;;;;;;2.14;61.62;101899.47;693720;28;22490;-69
2022/02/13 00:02:44;;;;;;;497.30;471.95;;;;;;;2.15;61.72;101892.34;693322;28;44168;-69
2022/02/13 00:03:05;;;;;;;704.55;666.30;;;;;;;2.16;61.71;101896.69;692964;28;44137;-69
2022/02/13 00:03:27;;;;;;;702.67;664.80;;;;;;;2.15;61.71;101895.00;693486;28;23393;-69
2022/02/13 00:03:49;;;;;;;732.67;692.50;;;;;;;2.13;61.88;101897.75;693083;28;45259;-69
2022/02/13 00:04:10;;;;;;;667.13;631.53;;;;;;;2.14;61.80;101893.28;693224;28;46413;-69
2022/02/13 00:04:32;;;;;;;596.50;565.25;;;;;;;2.14;61.79;101891.47;693036;28;46338;-69
2022/02/13 00:04:54;;;;;;;573.22;543.20;;;;;;;2.15;61.82;101898.53;693383;28;21273;-69
2022/02/13 00:05:15;;;;;;;441.13;418.80;;;;;;;2.15;61.84;101895.00;691875;28;44148;-69
2022/02/13 00:05:36;;;;;;;323.20;307.45;;;;;;;2.15;61.66;101893.19;693646;28;22401;-69
2022/02/13 00:05:58;;;;;;;484.33;459.60;;;;;;;2.17;61.69;101893.09;693583;28;21382;-69
2022/02/13 00:06:20;;;;;;;674.13;637.00;;;;;;;2.17;61.77;101885.94;667417;28;46297;-69
2022/02/13 00:06:41;;;;;;;496.83;471.90;;;;;;;2.18;61.76;101892.16;695331;28;46312;-69
2022/02/13 00:07:03;;;;;;;697.60;659.22;;;;;;;2.17;61.60;101895.75;696538;28;20889;-69
2022/02/13 00:07:24;;;;;;;560.65;530.63;;;;;;;2.17;61.73;101896.59;694941;28;44409;-69
2022/02/13 00:07:46;;;;;;;683.05;645.17;;;;;;;2.16;61.70;101894.03;695542;28;22398;-69
2022/02/13 00:08:07;;;;;;;778.85;734.70;;;;;;;2.16;61.63;101889.59;695809;28;46197;-69
2022/02/13 00:08:28;;;;;;;735.65;694.20;;;;;;;2.16;61.75;101886.03;695391;28;22416;-69
2022/02/13 00:08:49;;;;;;;722.03;681.60;;;;;;;2.17;61.85;101887.75;693912;28;21531;-69
2022/02/13 00:09:11;;;;;;;849.42;800.75;;;;;;;2.17;61.72;101891.28;693595;28;23814;-69
2022/02/13 00:09:32;;;;;;;493.85;467.75;;;;;;;2.16;61.70;101886.91;693797;28;44395;-70
2022/02/13 00:09:54;;;;;;;337.67;321.42;;;;;;;2.19;61.74;101895.66;694043;28;22293;-69
2022/02/13 00:10:15;;;;;;;602.13;569.38;;;;;;;2.18;61.75;101889.50;694585;28;23559;-69
2022/02/13 00:10:38;;;;;;;644.92;610.22;;;;;;;2.15;61.64;101887.84;693652;28;21549;-69
2022/02/13 00:10:59;;;;;;;556.05;527.95;;;;;;;2.15;61.64;101889.69;691008;28;69450;-69
2022/02/13 00:11:21;;;;;;;544.95;517.55;;;;;;;2.12;61.69;101890.72;691864;28;21520;-69
2022/02/13 00:11:42;;;;;;;381.42;362.83;;;;;;;2.13;61.49;101891.56;692219;28;44302;-69
2022/02/13 00:12:05;;;;;;;331.17;315.25;;;;;;;2.13;61.66;101897.75;694093;28;23454;-70
2022/02/13 00:12:26;;;;;;;478.92;455.08;;;;;;;2.11;61.75;101893.47;691024;28;70173;-69
2022/02/13 00:12:48;;;;;;;491.73;466.73;;;;;;;2.09;61.79;101885.56;691982;28;46294;-69
2022/02/13 00:13:10;;;;;;;772.17;728.88;;;;;;;2.09;61.93;101888.22;694090;28;22397;-69
2022/02/13 00:13:32;;;;;;;927.30;873.42;;;;;;;2.08;61.68;101891.84;692786;28;69393;-69
2022/02/13 00:13:54;;;;;;;1017.00;956.90;;;;;;;2.08;61.82;101888.31;693786;28;21295;-69
2022/02/13 00:14:15;;;;;;;865.33;815.58;;;;;;;2.05;61.99;101888.50;693469;28;44388;-69
2022/02/13 00:14:36;;;;;;;865.38;815.85;;;;;;;2.04;61.88;101886.78;694422;28;22345;-69
2022/02/13 00:14:57;;;;;;;767.25;723.92;;;;;;;2.04;61.96;101886.78;693984;28;23578;-69
2022/02/13 00:15:19;;;;;;;655.92;619.30;;;;;;;2.05;61.88;101886.69;693286;28;22306;-68
2022/02/13 00:15:41;;;;;;;768.15;724.72;;;;;;;2.05;61.93;101885.84;691837;28;69298;-68
2022/02/13 00:16:02;;;;;;;861.60;811.95;;;;;;;2.05;62.17;101885.84;691784;28;46283;-69
2022/02/13 00:16:23;;;;;;;883.22;832.35;;;;;;;2.06;62.09;101887.56;667072;28;22522;-69
2022/02/13 00:16:45;;;;;;;904.05;851.88;;;;;;;2.05;62.11;101886.69;693811;28;22345;-69
2022/02/13 00:17:06;;;;;;;984.03;926.45;;;;;;;2.06;62.19;101882.25;692885;28;45316;-68
2022/02/13 00:17:27;;;;;;;732.15;691.25;;;;;;;2.07;61.99;101883.94;695927;28;21546;-69
2022/02/13 00:17:48;;;;;;;869.95;820.05;;;;;;;2.06;62.05;101874.25;696636;28;23483;-69
2022/02/13 00:18:10;;;;;;;998.08;939.45;;;;;;;2.06;62.07;101880.41;696676;28;22388;-69
2022/02/13 00:18:31;;;;;;;804.72;759.00;;;;;;;2.03;62.06;101883.28;693527;28;44384;-69
2022/02/13 00:18:52;;;;;;;732.38;691.70;;;;;;;2.02;62.06;101881.53;693928;28;22391;-69
2022/02/13 00:19:13;;;;;;;559.75;529.83;;;;;;;2.03;62.10;101885.09;693295;28;21541;-69
2022/02/13 00:19:35;;;;;;;384.50;366.02;;;;;;;1.99;62.08;101879.06;693353;28;22427;-69
2022/02/13 00:19:58;;;;;;;348.80;331.93;;;;;;;1.98;62.18;101869.38;692168;28;67572;-69
2022/02/13 00:20:20;;;;;;;244.70;232.77;;;;;;;2.04;62.19;101878.78;690930;28;92318;-69
2022/02/13 00:20:41;;;;;;;398.70;378.30;;;;;;;2.04;62.15;101874.34;692263;28;45008;-69
2022/02/13 00:21:03;;;;;;;310.38;294.48;;;;;;;2.02;62.36;101875.38;693656;28;23444;-69
2022/02/13 00:21:24;;;;;;;446.23;422.52;;;;;;;2.05;62.10;101880.50;666189;28;46256;-69
2022/02/13 00:21:45;;;;;;;730.65;689.50;;;;;;;2.01;62.01;101873.66;693484;28;22870;-69
2022/02/13 00:22:06;;;;;;;650.25;614.33;;;;;;;2.03;62.13;101872.63;693460;28;21214;-69
2022/02/13 00:22:28;;;;;;;567.75;537.67;;;;;;;2.04;62.09;101874.34;692590;28;22460;-69
2022/02/13 00:22:49;;;;;;;435.60;414.05;;;;;;;2.03;62.08;101871.75;693083;28;44476;-69
2022/02/13 00:23:10;;;;;;;712.33;672.22;;;;;;;2.04;62.08;101871.69;692636;28;44372;-69
2022/02/13 00:23:32;;;;;;;928.92;874.80;;;;;;;2.05;62.26;101869.84;694181;28;22374;-70
2022/02/13 00:23:54;;;;;;;963.30;907.30;;;;;;;2.04;62.06;101871.69;693326;28;46423;-68
2022/02/13 00:24:15;;;;;;;982.17;924.97;;;;;;;2.04;62.08;101871.69;692902;28;44508;-69
2022/02/13 00:24:37;;;;;;;984.65;927.13;;;;;;;2.05;62.01;101868.03;692417;28;22390;-69
2022/02/13 00:24:59;;;;;;;953.92;898.47;;;;;;;2.06;61.95;101868.91;694101;28;22173;-70
2022/02/13 00:25:20;;;;;;;999.40;940.88;;;;;;;2.05;62.22;101870.69;692412;28;45254;-70
2022/02/13 00:25:43;;;;;;;830.38;782.60;;;;;;;2.05;61.96;101864.53;693589;28;21714;-68
2022/02/13 00:26:04;;;;;;;542.63;513.63;;;;;;;2.05;62.02;101864.53;691548;28;69417;-69
2022/02/13 00:26:25;;;;;;;872.75;822.55;;;;;;;2.02;61.98;101857.56;693618;28;14978;-69
2022/02/13 00:26:47;;;;;;;945.33;889.95;;;;;;;2.03;61.98;101856.63;693548;28;23472;-69
2022/02/13 00:27:08;;;;;;;986.65;928.92;;;;;;;2.04;62.12;101863.69;693220;28;44366;-69
2022/02/13 00:27:30;;;;;;;939.57;884.80;;;;;;;2.02;61.95;101864.72;691694;28;69496;-70
2022/02/13 00:27:52;;;;;;;641.42;605.70;;;;;;;2.03;62.01;101861.09;693329;28;45254;-69
2022/02/13 00:28:13;;;;;;;288.10;274.17;;;;;;;2.01;61.96;101857.66;694056;28;46336;-70
2022/02/13 00:28:36;;;;;;;343.75;327.10;;;;;;;2.03;61.99;101859.28;693887;28;22406;-69
2022/02/13 00:28:57;;;;;;;452.35;429.88;;;;;;;2.06;62.14;101863.59;692579;28;46322;-70
2022/02/13 00:29:19;;;;;;;751.67;709.42;;;;;;;2.06;61.93;101852.94;693469;28;22188;-69
2022/02/13 00:29:40;;;;;;;523.47;494.10;;;;;;;2.07;62.02;101857.28;692593;28;44503;-69
2022/02/13 00:30:01;;;;;;;226.55;215.35;;;;;;;2.06;62.06;101859.09;694119;28;22242;-69
2022/02/13 00:30:23;;;;;;;298.05;283.50;;;;;;;2.04;62.08;101849.47;692858;28;42580;-69
2022/02/13 00:30:46;;;;;;;437.40;415.65;;;;;;;2.06;61.92;101853.78;694284;28;15446;-69
2022/02/13 00:31:07;;;;;;;478.15;454.15;;;;;;;2.06;62.05;101859.09;693127;28;43455;-69
2022/02/13 00:31:28;;;;;;;433.38;411.88;;;;;;;2.07;61.87;101855.50;692782;28;23393;-69
2022/02/13 00:31:50;;;;;;;561.42;532.72;;;;;;;2.03;61.93;101853.97;693613;28;22416;-69
2022/02/13 00:32:12;;;;;;;723.45;683.55;;;;;;;2.03;62.09;101855.78;693717;28;22522;-69
2022/02/13 00:32:33;;;;;;;907.42;853.92;;;;;;;2.02;62.03;101846.06;692601;28;46569;-69
2022/02/13 00:32:56;;;;;;;1040.40;977.33;;;;;;;2.02;62.14;101846.06;693536;28;23744;-69
2022/02/13 00:33:17;;;;;;;1047.68;983.45;;;;;;;2.04;62.08;101853.03;691653;28;92294;-69
2022/02/13 00:33:38;;;;;;;742.03;699.10;;;;;;;2.06;62.05;101848.44;693491;28;22507;-69
2022/02/13 00:34:00;;;;;;;304.30;289.45;;;;;;;2.09;62.13;101850.06;693849;28;23364;-69
2022/02/13 00:34:21;;;;;;;372.05;353.48;;;;;;;2.09;61.98;101845.59;693170;28;45256;-69
2022/02/13 00:34:44;;;;;;;586.80;556.55;;;;;;;2.09;62.01;101850.06;694151;28;21515;-69
2022/02/13 00:35:06;;;;;;;597.75;566.88;;;;;;;2.08;61.94;101849.19;692956;28;36730;-69
2022/02/13 00:35:28;;;;;;;892.22;839.42;;;;;;;2.09;61.93;101847.41;694648;28;21948;-70
2022/02/13 00:35:49;;;;;;;1049.43;983.15;;;;;;;2.09;61.75;101848.25;692875;28;46734;-69
2022/02/13 00:36:10;;;;;;;1048.30;982.03;;;;;;;2.11;61.83;101843.69;694597;28;22468;-69
2022/02/13 00:36:31;;;;;;;1056.43;989.53;;;;;;;2.10;61.91;101835.78;692861;28;22345;-69
2022/02/13 00:36:53;;;;;;;1055.32;988.92;;;;;;;2.13;61.89;101841.78;693039;28;44934;-69
2022/02/13 00:37:14;;;;;;;1057.03;991.08;;;;;;;2.17;61.79;101837.97;691498;28;46473;-69
2022/02/13 00:37:35;;;;;;;983.95;923.95;;;;;;;2.17;61.63;101839.78;692828;28;22481;-69
2022/02/13 00:37:56;;;;;;;924.22;870.58;;;;;;;2.19;61.84;101839.69;693030;28;22500;-69
2022/02/13 00:38:24;;;;;;;817.20;771.08;;;;;;;2.22;61.51;101836.84;692494;28;60665;-69
2022/02/13 00:38:46;;;;;;;706.67;668.03;;;;;;;2.25;61.64;101839.31;692674;28;46198;-69
2022/02/13 00:39:08;;;;;;;759.10;716.42;;;;;;;2.28;61.47;101837.31;692535;28;67617;-69
2022/02/13 00:39:29;;;;;;;548.33;520.38;;;;;;;2.29;61.44;101835.50;693379;28;22219;-69
2022/02/13 00:39:51;;;;;;;511.35;485.60;;;;;;;2.30;61.46;101834.53;694126;28;24334;-69
2022/02/13 00:40:12;;;;;;;527.90;501.13;;;;;;;2.32;61.38;101836.16;692223;28;45060;-69
2022/02/13 00:40:33;;;;;;;513.05;487.17;;;;;;;2.31;61.25;101834.44;693340;28;22375;-69
2022/02/13 00:40:55;;;;;;;558.42;529.60;;;;;;;2.35;61.11;101827.09;693572;28;22390;-69
2022/02/13 00:41:17;;;;;;;883.60;830.53;;;;;;;2.36;61.11;101827.97;691196;28;69737;-69
2022/02/13 00:41:40;;;;;;;976.70;915.83;;;;;;;2.39;60.92;101833.97;694414;28;22437;-69
2022/02/13 00:42:02;;;;;;;879.75;827.65;;;;;;;2.44;60.95;101836.34;690039;28;92237;-69
2022/02/13 00:42:23;;;;;;;869.65;818.70;;;;;;;2.44;60.93;101833.66;693583;28;44376;-69
2022/02/13 00:42:48;;;;;;;880.17;827.80;;;;;;;2.41;60.87;101833.88;692039;28;69442;-69
2022/02/13 00:43:09;;;;;;;1028.38;963.25;;;;;;;2.41;60.77;101834.72;693294;28;44400;-69
2022/02/13 00:43:30;;;;;;;926.10;869.13;;;;;;;2.41;60.75;101841.88;693621;28;23417;-69
2022/02/13 00:43:51;;;;;;;914.17;858.58;;;;;;;2.38;60.61;101842.06;694060;28;22373;-69
2022/02/13 00:44:13;;;;;;;871.08;819.08;;;;;;;2.35;60.90;101835.09;694838;28;24193;-69
2022/02/13 00:44:34;;;;;;;998.58;936.33;;;;;;;2.34;60.82;101834.25;692742;28;45226;-70
2022/02/13 00:44:55;;;;;;;1019.72;954.75;;;;;;;2.33;60.98;101840.53;692843;28;44377;-69
2022/02/13 00:45:17;;;;;;;1061.18;994.22;;;;;;;2.29;61.07;101831.03;693919;28;22325;-69
2022/02/13 00:45:38;;;;;;;942.17;885.58;;;;;;;2.30;60.95;101831.88;692719;28;46342;-69
2022/02/13 00:46:00;;;;;;;947.65;891.05;;;;;;;2.31;61.06;101833.59;693516;28;24334;-69
2022/02/13 00:46:23;;;;;;;1016.63;951.22;;;;;;;2.29;61.00;101828.38;667406;28;45320;-69
2022/02/13 00:46:44;;;;;;;900.55;846.03;;;;;;;2.25;61.17;101833.97;692337;28;44387;-69
2022/02/13 00:47:05;;;;;;;830.90;783.15;;;;;;;2.25;61.25;101839.31;693424;28;22413;-69
2022/02/13 00:47:27;;;;;;;858.60;809.15;;;;;;;2.24;61.35;101830.47;692610;28;46280;-69
2022/02/13 00:47:49;;;;;;;902.22;848.13;;;;;;;2.23;61.06;101830.56;694526;28;1068;-69
2022/02/13 00:48:11;;;;;;;1048.10;978.90;;;;;;;2.21;61.18;101830.66;692622;28;46377;-69
2022/02/13 00:48:32;;;;;;;1019.30;953.72;;;;;;;2.21;61.35;101833.31;693044;28;47391;-69
2022/02/13 00:48:55;;;;;;;1057.70;989.95;;;;;;;2.18;61.49;101833.50;694038;28;22386;-69
2022/02/13 00:49:16;;;;;;;1058.80;989.95;;;;;;;2.17;61.34;101829.13;693550;28;44253;-69
2022/02/13 00:49:37;;;;;;;1058.90;990.75;;;;;;;2.13;61.41;101831.13;693209;28;46669;-69
2022/02/13 00:49:58;;;;;;;1064.85;998.10;;;;;;;2.12;61.40;101829.41;693271;28;22355;-69
2022/02/13 00:50:20;;;;;;;1066.53;998.90;;;;;;;2.12;61.36;101832.06;693502;28;22388;-69
2022/02/13 00:50:45;;;;;;;1066.93;998.70;;;;;;;2.12;61.43;101834.75;692703;28;46310;-69
2022/02/13 00:51:06;;;;;;;895.50;840.33;;;;;;;2.11;61.63;101829.50;690104;28;113134;-69
2022/02/13 00:51:28;;;;;;;892.30;838.22;;;;;;;2.11;61.65;101832.16;667215;28;22437;-69
2022/02/13 00:51:49;;;;;;;1058.95;990.72;;;;;;;2.09;61.65;101826.09;694698;28;22362;-69
2022/02/13 00:52:11;;;;;;;1064.60;997.85;;;;;;;2.07;61.70;101815.53;692691;28;21449;-70
2022/02/13 00:52:32;;;;;;;994.25;932.85;;;;;;;2.08;61.71;101824.38;691504;28;69472;-69
2022/02/13 00:52:53;;;;;;;628.80;595.20;;;;;;;2.06;61.70;101820.94;692100;28;45258;-69
2022/02/13 00:53:14;;;;;;;542.90;515.33;;;;;;;2.04;61.56;101818.38;693543;28;21540;-69
2022/02/13 00:53:36;;;;;;;624.05;591.38;;;;;;;2.01;61.80;101821.22;693453;28;22354;-69
2022/02/13 00:53:58;;;;;;;827.50;780.10;;;;;;;2.01;61.79;101809.69;692584;28;45230;-69
2022/02/13 00:54:20;;;;;;;1023.58;959.05;;;;;;;2.00;61.88;101816.00;693396;28;45283;-69
2022/02/13 00:54:41;;;;;;;1058.35;988.88;;;;;;;1.98;61.89;101808.09;692861;28;44337;-68
2022/02/13 00:55:03;;;;;;;1034.90;967.47;;;;;;;2.04;61.94;101812.16;693307;28;23235;-69
2022/02/13 00:55:24;;;;;;;771.80;727.55;;;;;;;2.05;61.95;101813.91;692298;28;46419;-69
2022/02/13 00:55:46;;;;;;;810.60;763.25;;;;;;;2.06;61.95;101815.63;693495;28;23487;-69
2022/02/13 00:56:09;;;;;;;1005.60;941.70;;;;;;;2.06;62.03;101810.28;692660;28;44026;-69
2022/02/13 00:56:31;;;;;;;774.10;729.95;;;;;;;2.05;61.95;101812.06;668503;28;46340;-69
2022/02/13 00:56:52;;;;;;;691.92;653.10;;;;;;;2.05;61.85;101811.22;695278;28;46292;-69
2022/02/13 00:57:13;;;;;;;742.33;699.60;;;;;;;2.04;61.92;101807.72;696336;28;22576;-69
2022/02/13 00:57:34;;;;;;;735.88;693.83;;;;;;;2.04;61.78;101805.06;693186;28;22054;-69
2022/02/13 00:57:57;;;;;;;804.30;757.28;;;;;;;2.03;61.70;101803.34;692608;28;46314;-69
2022/02/13 00:58:18;;;;;;;966.45;905.95;;;;;;;2.01;61.89;101802.56;691942;28;69497;-69
2022/02/13 00:58:40;;;;;;;1024.65;960.75;;;;;;;2.04;61.77;101799.72;694048;28;21524;-69
2022/02/13 00:59:02;;;;;;;1061.72;997.13;;;;;;;2.04;61.92;101802.38;692670;28;44363;-68
2022/02/13 00:59:23;;;;;;;1065.20;999.33;;;;;;;2.04;61.93;101805.06;694254;28;22398;-69
2022/02/13 00:59:45;;;;;;;1043.07;979.88;;;;;;;2.05;61.89;101797.91;691928;28;69426;-69
2022/02/13 01:00:08;;;;;;;1042.93;979.38;;;;;;;2.08;61.96;101803.03;693757;28;22230;-69
2022/02/13 01:00:30;;;;;;;1037.70;970.90;;;;;;;2.06;61.85;101791.63;691979;28;69438;-69
2022/02/13 01:00:53;;;;;;;945.55;885.30;;;;;;;2.09;61.73;101796.78;691592;28;90372;-69
2022/02/13 01:01:14;;;;;;;739.80;698.28;;;;;;;2.03;61.80;101792.66;690506;28;23421;-69
2022/02/13 01:01:36;;;;;;;829.35;780.90;;;;;;;2.05;61.81;101801.41;675905;28;22405;-69
2022/02/13 01:01:58;;;;;;;1025.30;962.83;;;;;;;2.03;61.86;101802.47;692554;28;46250;-69
2022/02/13 01:02:19;;;;;;;1020.88;958.58;;;;;;;2.03;61.81;101802.47;693214;28;46275;-69
2022/02/13 01:02:40;;;;;;;570.15;538.90;;;;;;;2.02;61.77;101800.75;693174;28;22415;-69
2022/02/13 01:03:01;;;;;;;487.35;462.08;;;;;;;2.02;61.83;101800.75;693061;28;21296;-69
2022/02/13 01:03:22;;;;;;;932.72;878.05;;;;;;;2.00;61.98;101798.19;692222;28;21446;-69
2022/02/13 01:03:45;;;;;;;1040.45;978.55;;;;;;;2.01;62.07;101799.91;693605;28;21557;-68
2022/02/13 01:04:06;;;;;;;957.23;901.17;;;;;;;2.02;61.98;101800.75;691637;28;69582;-69
2022/02/13 01:04:27;;;;;;;885.47;833.95;;;;;;;2.01;62.01;101793.72;693049;28;46540;-69
2022/02/13 01:04:48;;;;;;;1050.15;987.15;;;;;;;2.00;62.15;101800.84;693719;28;22034;-69
2022/02/13 01:05:10;;;;;;;1050.00;986.83;;;;;;;1.98;62.02;101800.09;693541;28;23676;-68
2022/02/13 01:05:31;;;;;;;1014.35;954.22;;;;;;;1.98;62.01;101805.44;692509;28;44157;-69
2022/02/13 01:05:52;;;;;;;1021.50;960.53;;;;;;;1.95;62.01;101801.13;692237;28;23441;-68
2022/02/13 01:06:13;;;;;;;630.22;594.95;;;;;;;1.93;61.94;101800.38;694253;28;23587;-69
2022/02/13 01:06:35;;;;;;;450.15;426.67;;;;;;;1.95;62.13;101805.63;692972;28;22376;-69
2022/02/13 01:06:57;;;;;;;299.63;284.95;;;;;;;1.93;62.32;101799.53;693637;28;46131;-69
2022/02/13 01:07:18;;;;;;;365.45;347.52;;;;;;;1.91;62.26;101798.75;692883;28;44238;-69
2022/02/13 01:07:40;;;;;;;717.50;677.30;;;;;;;1.94;62.14;101796.78;693916;28;22397;-69
2022/02/13 01:08:03;;;;;;;832.08;784.22;;;;;;;1.92;62.28;101798.66;692488;28;67485;-69
2022/02/13 01:08:24;;;;;;;917.63;864.35;;;;;;;1.88;62.17;101788.28;693859;28;1086;-69
2022/02/13 01:08:45;;;;;;;978.13;920.92;;;;;;;1.89;62.33;101790.00;694829;28;997;-69
2022/02/13 01:09:07;;;;;;;948.70;892.97;;;;;;;1.90;62.26;101797.06;693936;28;22387;-69
2022/02/13 01:09:28;;;;;;;433.63;410.70;;;;;;;1.83;62.27;101788.56;691715;28;46210;-69
2022/02/13 01:09:49;;;;;;;270.95;257.60;;;;;;;1.87;62.34;101792.78;693738;28;21275;-69
2022/02/13 01:10:10;;;;;;;245.82;233.63;;;;;;;1.89;62.32;101790.00;692890;28;22391;-69
2022/02/13 01:10:32;;;;;;;281.02;267.20;;;;;;;1.86;62.38;101793.72;694348;28;22399;-69
2022/02/13 01:10:53;;;;;;;574.92;543.80;;;;;;;1.89;62.34;101795.34;692486;28;46117;-69
2022/02/13 01:11:16;;;;;;;947.70;892.58;;;;;;;1.88;62.43;101793.63;692739;28;22400;-69
2022/02/13 01:11:37;;;;;;;583.30;551.45;;;;;;;1.89;62.36;101795.34;691802;28;67235;-69
2022/02/13 01:11:59;;;;;;;663.92;627.03;;;;;;;1.89;62.24;101795.34;693555;28;22492;-69
2022/02/13 01:12:20;;;;;;;940.83;886.10;;;;;;;1.90;62.39;101794.41;692803;28;46243;-69
2022/02/13 01:12:41;;;;;;;936.90;882.53;;;;;;;1.91;62.44;101798.75;693299;28;22418;-69
2022/02/13 01:13:02;;;;;;;937.90;883.47;;;;;;;1.87;62.34;101787.44;692955;28;23755;-69
2022/02/13 01:13:24;;;;;;;964.33;908.22;;;;;;;1.91;62.43;101794.31;694146;28;21542;-69
2022/02/13 01:13:48;;;;;;;962.42;906.45;;;;;;;1.91;62.33;101798.75;692894;28;46299;-69
2022/02/13 01:14:09;;;;;;;993.22;935.20;;;;;;;1.91;62.25;101793.44;691032;28;92231;-69
2022/02/13 01:14:31;;;;;;;1032.10;971.20;;;;;;;1.90;62.38;101786.41;694014;28;23484;-69
2022/02/13 01:14:52;;;;;;;1040.85;979.10;;;;;;;1.90;62.37;101792.59;692611;28;45268;-69
2022/02/13 01:15:15;;;;;;;1044.75;982.78;;;;;;;1.88;62.47;101791.84;694659;28;21368;-68
2022/02/13 01:15:36;;;;;;;1047.30;984.92;;;;;;;1.88;62.40;101793.63;691957;28;67263;-68
2022/02/13 01:15:59;;;;;;;1059.32;994.92;;;;;;;1.88;62.50;101793.63;693986;28;22280;-69
2022/02/13 01:16:20;;;;;;;1059.45;995.95;;;;;;;1.87;62.51;101794.59;665655;28;69459;-68
2022/02/13 01:16:41;;;;;;;1062.75;998.63;;;;;;;1.87;62.46;101792.78;693669;28;23458;-69
2022/02/13 01:17:03;;;;;;;1065.25;999.78;;;;;;;1.92;62.53;101800.47;692985;28;21166;-68
2022/02/13 01:17:25;;;;;;;1069.40;999.90;;;;;;;1.91;62.57;101798.75;693637;28;44475;-69
2022/02/13 01:17:46;;;;;;;1064.72;999.90;;;;;;;1.93;62.50;101792.41;692104;28;46310;-69
2022/02/13 01:18:08;;;;;;;1067.50;999.90;;;;;;;1.94;62.43;101795.91;692992;28;22231;-69
2022/02/13 01:18:29;;;;;;;1062.43;996.20;;;;;;;1.96;62.46;101794.03;692200;28;1570;-69
2022/02/13 01:18:51;;;;;;;1061.15;993.65;;;;;;;1.94;62.34;101787.91;694013;28;21359;-69
2022/02/13 01:19:12;;;;;;;1060.97;994.85;;;;;;;1.97;62.26;101793.06;693037;28;46370;-69
2022/02/13 01:19:33;;;;;;;1071.00;999.90;;;;;;;1.94;62.23;101785.25;693162;28;22383;-69
2022/02/13 01:19:55;;;;;;;1010.22;949.05;;;;;;;1.95;62.23;101784.31;691421;28;46383;-69
2022/02/13 01:20:17;;;;;;;537.13;508.20;;;;;;;1.94;62.27;101793.25;693900;28;22402;-70
2022/02/13 01:20:38;;;;;;;384.83;365.80;;;;;;;1.94;62.18;101786.13;693700;28;39565;-69
2022/02/13 01:20:59;;;;;;;460.17;436.83;;;;;;;1.94;62.24;101791.47;693377;28;21575;-69
2022/02/13 01:21:20;;;;;;;866.78;817.22;;;;;;;1.93;62.27;101787.06;693545;28;22457;-69
2022/02/13 01:21:42;;;;;;;1001.35;942.63;;;;;;;1.90;62.14;101781.94;693413;28;22994;-69
2022/02/13 01:22:07;;;;;;;1047.60;985.35;;;;;;;1.93;62.26;101787.06;693220;28;45340;-69
2022/02/13 01:22:28;;;;;;;1059.35;995.90;;;;;;;1.93;62.31;101783.56;690491;28;114901;-69
2022/02/13 01:22:49;;;;;;;1044.38;982.28;;;;;;;1.90;62.28;101781.09;694895;28;23726;-69
2022/02/13 01:23:10;;;;;;;1055.70;991.90;;;;;;;1.92;62.28;101788.00;694006;28;22384;-69
2022/02/13 01:23:32;;;;;;;998.60;938.63;;;;;;;1.91;62.22;101782.78;692437;28;44351;-69
2022/02/13 01:23:53;;;;;;;973.50;916.83;;;;;;;1.89;62.36;101780.19;691608;28;45299;-69
2022/02/13 01:24:14;;;;;;;1036.85;975.53;;;;;;;1.91;62.26;101782.78;691706;28;44389;-69
2022/02/13 01:24:35;;;;;;;1045.20;983.20;;;;;;;1.90;62.31;101781.09;692966;28;22365;-70
2022/02/13 01:24:57;;;;;;;1039.65;978.30;;;;;;;1.87;62.55;101782.13;693024;28;22394;-69
2022/02/13 01:25:18;;;;;;;1046.57;984.53;;;;;;;1.88;62.32;101782.97;693364;28;46304;-68
2022/02/13 01:25:40;;;;;;;1047.60;985.25;;;;;;;1.86;62.29;101775.06;693745;28;23457;-69
2022/02/13 01:26:01;;;;;;;1034.60;973.45;;;;;;;1.90;62.39;101786.41;692890;28;23437;-69
2022/02/13 01:26:24;;;;;;;968.90;912.10;;;;;;;1.91;62.23;101778.31;667434;28;23390;-69
2022/02/13 01:26:45;;;;;;;1038.88;977.40;;;;;;;1.93;62.35;101787.06;690105;28;92376;-69
2022/02/13 01:27:06;;;;;;;1048.05;985.63;;;;;;;1.93;62.29;101781.72;692567;28;47428;-69
2022/02/13 01:27:27;;;;;;;1061.22;997.70;;;;;;;1.92;62.31;101782.69;693448;28;22139;-69
2022/02/13 01:27:49;;;;;;;1055.13;991.83;;;;;;;1.93;62.24;101781.72;693736;28;23307;-69
2022/02/13 01:28:10;;;;;;;1057.72;994.42;;;;;;;1.93;62.21;101787.06;693535;28;45227;-69
2022/02/13 01:28:32;;;;;;;1059.72;996.35;;;;;;;1.93;62.22;101789.72;693792;28;22398;-69
2022/02/13 01:28:54;;;;;;;1064.03;999.85;;;;;;;1.91;62.25;101780.09;691500;28;46339;-69
2022/02/13 01:29:16;;;;;;;1061.40;997.15;;;;;;;1.94;62.33;101790.56;692673;28;22444;-69
2022/02/13 01:29:37;;;;;;;1057.97;994.20;;;;;;;1.93;62.36;101786.22;693282;28;46062;-69
2022/02/13 01:29:58;;;;;;;1059.00;995.15;;;;;;;1.92;62.31;101784.50;694395;28;23416;-69
2022/02/13 01:30:19;;;;;;;1055.72;992.33;;;;;;;1.90;62.21;101789.91;693678;28;21534;-69
2022/02/13 01:30:41;;;;;;;1060.38;996.67;;;;;;;1.91;62.31;101788.97;693115;28;22397;-70
2022/02/13 01:31:02;;;;;;;1058.68;995.17;;;;;;;1.90;62.26;101789.06;691853;28;44379;-69
2022/02/13 01:31:23;;;;;;;1058.57;995.03;;;;;;;1.86;62.38;101780.41;691292;28;44005;-70
2022/02/13 01:31:45;;;;;;;1061.57;997.78;;;;;;;1.87;62.16;101783.94;693378;28;23334;-69
2022/02/13 01:32:08;;;;;;;1063.60;998.80;;;;;;;1.86;62.30;101784.88;693382;28;46277;-70
2022/02/13 01:32:29;;;;;;;1068.90;999.90;;;;;;;1.87;62.29;101792.78;692558;28;46918;-70
2022/02/13 01:32:50;;;;;;;1068.50;999.90;;;;;;;1.87;62.34;101787.44;694316;28;22457;-69
2022/02/13 01:33:12;;;;;;;1071.38;999.90;;;;;;;1.88;62.43;101785.63;693319;28;22389;-70
2022/02/13 01:33:35;;;;;;;1072.15;999.90;;;;;;;1.88;62.14;101783.84;693252;28;23506;-69
2022/02/13 01:33:56;;;;;;;1072.15;999.90;;;;;;;1.86;62.25;101780.41;689013;28;70186;-70
2022/02/13 01:34:18;;;;;;;1072.38;999.90;;;;;;;1.85;62.38;101781.38;689984;28;21531;-69
2022/02/13 01:34:39;;;;;;;1070.78;999.90;;;;;;;1.86;62.28;101775.06;690258;28;46295;-69
2022/02/13 01:35:01;;;;;;;1069.40;999.65;;;;;;;1.84;62.31;101779.63;691475;28;22171;-69
2022/02/13 01:35:22;;;;;;;1075.80;999.90;;;;;;;1.86;62.31;101780.41;693259;28;46487;-69
2022/02/13 01:35:43;;;;;;;1070.78;999.88;;;;;;;1.84;62.66;101774.31;693989;28;46283;-69
2022/02/13 01:36:04;;;;;;;1072.65;999.90;;;;;;;1.85;62.46;101781.38;693983;28;23200;-69
2022/02/13 01:36:26;;;;;;;1074.60;999.90;;;;;;;1.86;62.47;101774.22;667777;28;22406;-69
2022/02/13 01:36:48;;;;;;;1073.78;999.90;;;;;;;1.86;62.62;101774.22;689374;28;44756;-69
2022/02/13 01:37:09;;;;;;;1070.88;999.90;;;;;;;1.87;62.31;101778.59;690468;28;23413;-69
2022/02/13 01:37:31;;;;;;;868.70;815.03;;;;;;;1.86;62.52;101779.53;688823;28;46292;-69
2022/02/13 01:37:53;;;;;;;658.90;622.38;;;;;;;1.87;62.44;101775.94;690516;28;22379;-69